createdAt,value
2022-10-04T00:01:50.350Z,4.80
2022-10-04T00:04:25.924Z,5.97
2022-10-04T00:07:00.887Z,5.40
2022-10-04T00:12:04.966Z,5.63
2022-10-04T00:14:38.836Z,5.68
2022-10-04T00:17:12.641Z,4.85
2022-10-04T00:19:45.298Z,4.88
2022-10-04T00:22:22.475Z,5.18
2022-10-04T00:25:22.273Z,4.93
2022-10-04T00:28:28.993Z,4.93
2022-10-04T00:31:22.156Z,5.07
2022-10-04T00:33:57.676Z,5.18
2022-10-04T00:36:51.279Z,4.60
2022-10-04T00:39:29.721Z,5.53
2022-10-04T00:42:29.453Z,4.15
2022-10-04T00:45:02.332Z,4.45
2022-10-04T00:47:40.514Z,4.90
2022-10-04T00:50:19.807Z,4.18
2022-10-04T00:52:58.196Z,4.47
2022-10-04T00:55:37.275Z,4.20
2022-10-04T00:58:15.479Z,3.83
2022-10-04T01:00:45.647Z,3.72
2022-10-04T01:03:21.659Z,3.72
2022-10-04T01:05:56.097Z,3.60
2022-10-04T01:08:31.141Z,3.40
2022-10-04T01:11:04.120Z,2.90
2022-10-04T01:13:39.953Z,2.72
2022-10-04T01:16:15.411Z,2.80
2022-10-04T01:18:45.796Z,3.03
2022-10-04T01:21:28.369Z,2.90
2022-10-04T01:24:21.792Z,2.85
2022-10-04T01:26:50.422Z,3.08
2022-10-04T01:29:26.376Z,3.10
2022-10-04T01:31:57.263Z,2.95
2022-10-04T01:34:28.330Z,3.13
2022-10-04T01:37:00.339Z,3.00
2022-10-04T01:39:31.033Z,3.20
2022-10-04T01:42:06.651Z,3.20
2022-10-04T01:44:42.471Z,3.05
2022-10-04T01:47:16.065Z,3.42
2022-10-04T01:49:46.392Z,3.15
2022-10-04T01:52:22.492Z,3.90
2022-10-04T01:55:00.629Z,5.00
2022-10-04T01:57:35.185Z,4.55
2022-10-04T02:00:07.338Z,4.97
2022-10-04T02:02:42.612Z,4.35
2022-10-04T02:05:17.159Z,4.57
2022-10-04T02:07:47.436Z,3.95
2022-10-04T02:10:22.307Z,3.30
2022-10-04T02:12:54.726Z,3.55
2022-10-04T02:15:26.870Z,3.67
2022-10-04T02:17:56.652Z,3.00
2022-10-04T02:20:28.152Z,4.13
2022-10-04T02:22:59.407Z,3.50
2022-10-04T02:25:29.270Z,3.08
2022-10-04T02:27:58.022Z,3.78
2022-10-04T02:30:26.644Z,3.63
2022-10-04T02:33:00.254Z,4.32
2022-10-04T02:35:35.700Z,4.32
2022-10-04T02:38:16.054Z,4.50
2022-10-04T02:40:55.065Z,4.93
2022-10-04T02:43:28.506Z,4.80
2022-10-04T02:46:04.299Z,5.22
2022-10-04T02:48:42.227Z,5.88
2022-10-04T02:51:20.899Z,5.72
2022-10-04T02:54:03.854Z,5.47
2022-10-04T02:56:34.729Z,5.65
2022-10-04T02:59:04.850Z,5.20
2022-10-04T03:01:50.240Z,5.85
2022-10-04T03:04:23.245Z,5.88
2022-10-04T03:06:52.191Z,5.57
2022-10-04T03:09:28.801Z,5.15
2022-10-04T03:12:00.106Z,5.40
2022-10-04T03:14:29.674Z,5.43
2022-10-04T03:17:03.929Z,5.30
2022-10-04T03:19:34.641Z,4.72
2022-10-04T03:22:07.626Z,5.40
2022-10-04T03:24:40.001Z,5.40
2022-10-04T03:27:16.063Z,5.38
2022-10-04T03:29:44.659Z,5.13
2022-10-04T03:32:16.788Z,4.75
2022-10-04T03:34:56.430Z,5.22
2022-10-04T03:37:26.518Z,4.55
2022-10-04T03:39:56.600Z,5.53
2022-10-04T03:42:29.761Z,9.25
2022-10-04T03:45:02.883Z,10.18
2022-10-04T03:47:35.141Z,5.38
2022-10-04T03:50:16.941Z,4.60
2022-10-04T03:53:00.139Z,4.40
2022-10-04T03:55:36.166Z,4.32
2022-10-04T03:58:06.936Z,4.35
2022-10-04T04:00:43.202Z,4.35
2022-10-04T04:03:17.824Z,4.45
2022-10-04T04:05:50.971Z,4.68
2022-10-04T04:08:28.581Z,4.60
2022-10-04T04:10:59.799Z,5.60
2022-10-04T04:13:34.346Z,4.68
2022-10-04T04:16:03.779Z,4.68
2022-10-04T04:18:35.651Z,4.60
2022-10-04T04:21:06.169Z,4.22
2022-10-04T04:23:37.920Z,4.00
2022-10-04T04:26:20.040Z,4.60
2022-10-04T04:28:52.997Z,4.50
2022-10-04T04:31:25.513Z,4.70
2022-10-04T04:33:59.307Z,4.82
2022-10-04T04:36:31.019Z,3.80
2022-10-04T04:39:27.529Z,4.35
2022-10-04T04:41:55.835Z,4.30
2022-10-04T04:44:26.009Z,3.88
2022-10-04T04:47:00.335Z,4.38
2022-10-04T04:49:31.273Z,4.38
2022-10-04T04:52:00.081Z,4.80
2022-10-04T04:54:29.082Z,5.60
2022-10-04T04:56:58.421Z,17.45
2022-10-04T04:59:29.209Z,7.95
2022-10-04T05:01:57.742Z,11.80
2022-10-04T05:04:26.377Z,8.35
2022-10-04T05:07:04.687Z,10.30
2022-10-04T05:09:35.907Z,5.13
2022-10-04T05:12:10.760Z,3.70
2022-10-04T05:14:47.387Z,3.35
2022-10-04T05:17:22.876Z,3.40
2022-10-04T05:19:53.226Z,3.25
2022-10-04T05:22:25.202Z,3.75
2022-10-04T05:24:56.566Z,3.33
2022-10-04T05:27:31.861Z,3.70
2022-10-04T05:30:08.147Z,3.35
2022-10-04T05:32:48.052Z,3.45
2022-10-04T05:35:18.729Z,3.15
2022-10-04T05:38:00.615Z,3.25
2022-10-04T05:40:42.277Z,3.13
2022-10-04T05:43:30.891Z,2.67
2022-10-04T05:46:22.926Z,3.17
2022-10-04T05:48:56.494Z,3.60
2022-10-04T05:51:28.461Z,4.10
2022-10-04T05:54:01.531Z,3.78
2022-10-04T05:57:21.837Z,3.92
2022-10-04T06:00:07.127Z,3.88
2022-10-04T06:03:14.509Z,4.35
2022-10-04T06:05:56.011Z,4.55
2022-10-04T06:08:44.877Z,4.57
2022-10-04T06:11:31.368Z,4.47
2022-10-04T06:14:35.455Z,4.55
2022-10-04T06:17:24.230Z,4.50
2022-10-04T06:20:14.039Z,5.30
2022-10-04T06:22:45.980Z,4.88
2022-10-04T06:25:20.526Z,5.80
2022-10-04T06:27:57.934Z,5.32
2022-10-04T06:30:26.596Z,6.15
2022-10-04T06:33:23.720Z,6.22
2022-10-04T06:36:18.396Z,7.43
2022-10-04T06:39:09.396Z,6.72
2022-10-04T06:42:02.968Z,8.80
2022-10-04T06:44:46.540Z,7.82
2022-10-04T06:47:31.380Z,6.47
2022-10-04T06:50:15.736Z,6.68
2022-10-04T06:53:10.263Z,6.90
2022-10-04T06:56:27.866Z,6.70
2022-10-04T06:59:22.556Z,7.50
2022-10-04T07:01:53.868Z,6.25
2022-10-04T07:04:55.870Z,6.93
2022-10-04T07:07:36.380Z,6.32
2022-10-04T07:10:42.208Z,5.93
2022-10-04T07:13:33.254Z,5.93
2022-10-04T07:16:07.624Z,5.55
2022-10-04T07:18:45.082Z,6.05
2022-10-04T07:21:17.398Z,6.40
2022-10-04T07:23:51.431Z,6.60
2022-10-04T07:26:31.469Z,6.15
2022-10-04T07:29:22.224Z,6.05
2022-10-04T07:32:06.266Z,5.72
2022-10-04T07:34:39.764Z,5.55
2022-10-04T07:37:14.059Z,5.68
2022-10-04T07:39:50.389Z,6.50
2022-10-04T07:42:28.851Z,5.00
2022-10-04T07:45:09.763Z,5.13
2022-10-04T07:47:38.264Z,4.70
2022-10-04T07:50:26.296Z,5.15
2022-10-04T07:53:07.161Z,4.82
2022-10-04T07:55:51.376Z,5.30
2022-10-04T07:58:30.904Z,4.95
2022-10-04T08:01:03.557Z,4.65
2022-10-04T08:04:00.188Z,5.22
2022-10-04T08:06:37.501Z,4.57
2022-10-04T08:09:28.348Z,4.65
2022-10-04T08:12:08.856Z,5.60
2022-10-04T08:14:55.760Z,6.30
2022-10-04T08:17:42.856Z,5.25
2022-10-04T08:20:32.508Z,4.45
2022-10-04T08:23:20.062Z,4.72
2022-10-04T08:26:01.961Z,4.95
2022-10-04T08:28:57.837Z,6.63
2022-10-04T08:31:40.743Z,5.85
2022-10-04T08:34:32.007Z,5.60
2022-10-04T08:37:18.316Z,5.80
2022-10-04T08:40:12.831Z,6.22
2022-10-04T08:43:20.605Z,6.23
2022-10-04T08:46:34.917Z,5.45
2022-10-04T08:49:46.647Z,5.32
2022-10-04T08:52:48.094Z,4.80
2022-10-04T08:55:55.200Z,4.63
2022-10-04T08:59:28.447Z,4.43
2022-10-04T09:02:29.507Z,4.18
2022-10-04T09:05:23.322Z,4.35
2022-10-04T09:08:29.745Z,4.60
2022-10-04T09:11:26.636Z,6.18
2022-10-04T09:14:24.854Z,4.18
2022-10-04T09:17:02.622Z,3.97
2022-10-04T09:19:46.424Z,4.20
2022-10-04T09:22:34.591Z,3.63
2022-10-04T09:25:29.746Z,3.60
2022-10-04T09:29:04.923Z,3.85
2022-10-04T09:32:05.968Z,3.47
2022-10-04T09:34:52.139Z,3.97
2022-10-04T09:37:45.668Z,3.45
2022-10-04T09:40:53.191Z,3.50
2022-10-04T09:44:12.974Z,3.33
2022-10-04T09:47:12.218Z,3.78
2022-10-04T09:50:11.062Z,3.40
2022-10-04T09:52:48.948Z,2.90
2022-10-04T09:55:37.770Z,2.50
2022-10-04T09:58:46.388Z,2.97
2022-10-04T10:01:23.184Z,3.15
2022-10-04T10:04:36.794Z,3.53
2022-10-04T10:07:32.635Z,3.55
2022-10-04T10:10:34.065Z,3.38
2022-10-04T10:13:51.077Z,2.88
2022-10-04T10:16:39.345Z,3.20
2022-10-04T10:19:43.890Z,3.53
2022-10-04T10:22:33.728Z,3.72
2022-10-04T10:25:23.628Z,3.25
2022-10-04T10:28:27.072Z,4.22
2022-10-04T10:31:21.341Z,3.00
2022-10-04T10:34:41.035Z,2.78
2022-10-04T10:37:15.499Z,2.70
2022-10-04T10:40:43.664Z,2.75
2022-10-04T10:43:32.933Z,2.70
2022-10-04T10:46:23.625Z,2.50
2022-10-04T10:49:24.109Z,2.58
2022-10-04T10:52:57.050Z,2.95
2022-10-04T10:56:09.295Z,3.38
2022-10-04T10:59:38.588Z,9.02
2022-10-04T11:02:53.209Z,14.50
2022-10-04T11:06:17.749Z,2.90
2022-10-04T11:09:21.743Z,3.33
2022-10-04T11:12:30.177Z,2.75
2022-10-04T11:15:39.703Z,2.90
2022-10-04T11:18:52.100Z,2.65
2022-10-04T11:22:14.053Z,2.83
2022-10-04T11:25:25.922Z,2.90
2022-10-04T11:28:05.669Z,2.63
2022-10-04T11:31:23.912Z,4.32
2022-10-04T11:34:23.952Z,2.80
2022-10-04T11:37:08.767Z,2.60
2022-10-04T11:40:06.439Z,2.40
2022-10-04T11:42:54.022Z,2.50
2022-10-04T11:46:01.728Z,2.63
2022-10-04T11:48:42.517Z,2.72
2022-10-04T11:52:17.632Z,2.67
2022-10-04T11:55:42.106Z,2.40
2022-10-04T11:58:18.779Z,2.22
2022-10-04T12:01:32.057Z,2.35
2022-10-04T12:04:45.341Z,2.10
2022-10-04T12:07:35.095Z,2.20
2022-10-04T12:10:29.243Z,2.13
2022-10-04T12:13:40.931Z,2.25
2022-10-04T12:17:01.511Z,2.28
2022-10-04T12:19:56.471Z,2.03
2022-10-04T12:23:07.215Z,2.30
2022-10-04T12:26:07.207Z,2.13
2022-10-04T12:29:19.797Z,2.35
2022-10-04T12:31:53.256Z,1.90
2022-10-04T12:34:32.600Z,2.17
2022-10-04T12:37:18.947Z,2.67
2022-10-04T12:40:15.561Z,2.38
2022-10-04T12:42:54.637Z,2.13
2022-10-04T12:45:49.826Z,2.20
2022-10-04T12:48:28.998Z,2.25
2022-10-04T12:51:22.840Z,2.15
2022-10-04T12:54:01.168Z,2.65
2022-10-04T12:56:48.384Z,2.15
2022-10-04T12:59:43.695Z,2.00
2022-10-04T13:02:33.395Z,1.83
2022-10-04T13:05:12.132Z,1.52
2022-10-04T13:08:00.179Z,2.15
2022-10-04T13:10:51.322Z,2.67
2022-10-04T13:13:50.977Z,1.80
2022-10-04T13:19:30.971Z,2.30
2022-10-04T13:22:54.797Z,1.83
2022-10-04T13:26:11.285Z,1.67
2022-10-04T13:28:51.577Z,1.40
2022-10-04T13:31:26.048Z,1.95
2022-10-04T13:34:06.710Z,1.80
2022-10-04T13:36:54.162Z,1.83
2022-10-04T13:39:45.481Z,1.75
2022-10-04T13:42:32.614Z,2.92
2022-10-04T13:45:24.230Z,1.70
2022-10-04T13:48:27.175Z,1.73
2022-10-04T13:51:14.058Z,1.90
2022-10-04T13:54:07.665Z,1.90
2022-10-04T13:56:59.313Z,1.40
2022-10-04T13:59:44.433Z,1.45
2022-10-04T14:06:02.111Z,1.50
2022-10-04T14:09:11.782Z,1.83
2022-10-04T14:12:34.840Z,1.80
2022-10-04T14:15:51.011Z,1.70
2022-10-04T14:19:06.943Z,1.60
2022-10-04T14:25:24.082Z,1.42
2022-10-04T14:28:22.518Z,2.30
2022-10-04T14:31:14.530Z,1.63
2022-10-04T14:34:12.740Z,1.80
2022-10-04T14:37:07.254Z,1.70
2022-10-04T14:40:05.288Z,1.92
2022-10-04T14:43:01.240Z,1.55
2022-10-04T14:45:58.698Z,1.83
2022-10-04T14:48:47.221Z,1.98
2022-10-04T14:51:51.998Z,1.77
2022-10-04T14:54:38.415Z,1.73
2022-10-04T14:57:12.223Z,1.50
2022-10-04T15:00:16.731Z,1.80
2022-10-04T15:03:17.066Z,1.85
2022-10-04T15:06:13.007Z,1.67
2022-10-04T15:09:27.611Z,1.80
2022-10-04T15:12:32.695Z,1.60
2022-10-04T15:15:59.844Z,1.90
2022-10-04T15:18:46.524Z,1.50
2022-10-04T15:21:43.765Z,1.67
2022-10-04T15:24:28.172Z,2.75
2022-10-04T15:27:38.707Z,2.25
2022-10-04T15:30:25.298Z,2.30
2022-10-04T15:33:20.264Z,1.40
2022-10-04T15:36:12.357Z,1.90
2022-10-04T15:38:53.709Z,1.55
2022-10-04T15:41:30.001Z,1.60
2022-10-04T15:44:39.220Z,1.45
2022-10-04T15:47:16.570Z,1.80
2022-10-04T15:50:23.479Z,1.52
2022-10-04T15:53:27.100Z,1.45
2022-10-04T15:56:32.424Z,2.20
2022-10-04T16:02:29.082Z,3.33
2022-10-04T16:05:14.091Z,3.22
2022-10-04T16:08:11.134Z,2.58
2022-10-04T16:11:14.971Z,1.60
2022-10-04T16:14:02.499Z,1.60
2022-10-04T16:17:02.143Z,1.45
2022-10-04T16:20:02.205Z,1.52
2022-10-04T16:22:32.448Z,1.98
2022-10-04T16:25:30.974Z,1.63
2022-10-04T16:28:11.569Z,1.80
2022-10-04T16:30:48.850Z,1.63
2022-10-04T16:33:31.995Z,2.28
2022-10-04T16:36:11.728Z,4.65
2022-10-04T16:39:02.063Z,2.15
2022-10-04T16:41:40.537Z,1.95
2022-10-04T16:44:32.339Z,1.55
2022-10-04T16:47:11.929Z,1.85
2022-10-04T16:49:50.984Z,1.83
2022-10-04T16:52:51.248Z,1.73
2022-10-04T16:55:37.883Z,2.05
2022-10-04T16:58:58.335Z,2.00
2022-10-04T17:02:04.436Z,1.70
2022-10-04T17:04:55.407Z,13.07
2022-10-04T17:07:42.610Z,4.07
2022-10-04T17:10:34.920Z,3.03
2022-10-04T17:13:20.437Z,2.50
2022-10-04T17:15:50.187Z,2.10
2022-10-04T17:18:36.844Z,2.05
2022-10-04T17:21:14.248Z,2.00
2022-10-04T17:24:21.200Z,5.53
2022-10-04T17:27:05.836Z,2.45
2022-10-04T17:29:59.870Z,2.50
2022-10-04T17:32:40.859Z,1.73
2022-10-04T17:35:47.286Z,1.70
2022-10-04T17:38:24.216Z,1.92
2022-10-04T17:41:01.550Z,2.35
2022-10-04T17:43:36.877Z,1.88
2022-10-04T17:46:17.865Z,2.10
2022-10-04T17:49:08.656Z,2.80
2022-10-04T17:52:08.366Z,3.25
2022-10-04T17:55:12.336Z,2.75
2022-10-04T17:57:49.049Z,2.33
2022-10-04T18:00:20.532Z,2.42
2022-10-04T18:03:04.736Z,3.22
2022-10-04T18:05:46.350Z,3.17
2022-10-04T18:08:24.858Z,3.42
2022-10-04T18:10:58.210Z,3.78
2022-10-04T18:13:34.171Z,2.95
2022-10-04T18:16:11.728Z,2.65
2022-10-04T18:18:42.372Z,2.10
2022-10-04T18:21:27.245Z,2.20
2022-10-04T18:26:33.607Z,2.40
2022-10-04T18:29:03.750Z,3.10
2022-10-04T18:31:37.469Z,3.70
2022-10-04T18:34:28.905Z,2.60
2022-10-04T18:37:07.588Z,2.47
2022-10-04T18:39:53.225Z,2.53
2022-10-04T18:42:30.060Z,2.72
2022-10-04T18:45:00.533Z,2.55
2022-10-04T18:47:37.283Z,6.68
2022-10-04T18:50:18.956Z,3.42
2022-10-04T18:53:02.220Z,3.25
2022-10-04T18:55:42.673Z,3.00
2022-10-04T18:58:51.090Z,3.22
2022-10-04T19:02:03.170Z,5.07
2022-10-04T19:04:54.730Z,6.53
2022-10-04T19:07:36.385Z,3.63
2022-10-04T19:10:17.577Z,3.65
2022-10-04T19:13:15.520Z,3.13
2022-10-04T19:16:13.150Z,3.60
2022-10-04T19:18:59.567Z,3.15
2022-10-04T19:21:42.602Z,3.20
2022-10-04T19:24:47.874Z,3.33
2022-10-04T19:27:25.152Z,3.10
2022-10-04T19:30:16.190Z,3.03
2022-10-04T19:33:01.061Z,5.78
2022-10-04T19:35:50.742Z,4.30
2022-10-04T19:38:33.643Z,3.00
2022-10-04T19:41:10.825Z,3.25
2022-10-04T19:43:50.231Z,3.08
2022-10-04T19:46:36.219Z,2.88
2022-10-04T19:49:12.784Z,3.10
2022-10-04T19:51:51.178Z,6.82
2022-10-04T19:54:27.391Z,10.48
2022-10-04T19:56:58.844Z,6.78
2022-10-04T19:59:37.269Z,4.30
2022-10-04T20:02:11.403Z,4.10
2022-10-04T20:04:42.095Z,3.47
2022-10-04T20:07:23.640Z,3.45
2022-10-04T20:09:58.083Z,4.70
2022-10-04T20:12:35.431Z,4.50
2022-10-04T20:15:46.392Z,4.80
2022-10-04T20:19:00.753Z,4.88
2022-10-04T20:21:32.063Z,5.00
2022-10-04T20:24:01.719Z,4.55
2022-10-04T20:26:54.497Z,5.57
2022-10-04T20:30:06.409Z,6.07
2022-10-04T20:32:55.934Z,5.75
2022-10-04T20:36:12.165Z,5.88
2022-10-04T20:42:22.304Z,4.80
2022-10-04T20:44:57.374Z,5.00
2022-10-04T20:47:47.692Z,4.82
2022-10-04T20:50:26.547Z,4.70
2022-10-04T20:52:59.288Z,5.28
2022-10-04T20:55:30.386Z,6.93
2022-10-04T20:58:02.577Z,4.22
2022-10-04T21:00:35.023Z,4.30
2022-10-04T21:03:24.406Z,3.80
2022-10-04T21:06:06.230Z,3.80
2022-10-04T21:08:36.065Z,3.70
2022-10-04T21:11:19.485Z,4.03
2022-10-04T21:13:55.373Z,4.03
2022-10-04T21:16:44.660Z,3.90
2022-10-04T21:19:45.717Z,4.38
2022-10-04T21:22:37.532Z,4.50
2022-10-04T21:25:42.483Z,4.50
2022-10-04T21:28:33.637Z,4.60
2022-10-04T21:31:04.071Z,4.40
2022-10-04T21:33:36.401Z,7.68
2022-10-04T21:36:06.421Z,7.53
2022-10-04T21:38:34.782Z,6.15
2022-10-04T21:41:04.872Z,5.13
2022-10-04T21:43:33.297Z,4.93
2022-10-04T21:46:01.828Z,5.07
2022-10-04T21:48:30.332Z,5.20
2022-10-04T21:50:58.648Z,5.20
2022-10-04T21:53:26.881Z,4.43
2022-10-04T21:55:55.214Z,6.50
2022-10-04T21:58:24.860Z,6.47
2022-10-04T22:00:53.250Z,5.07
2022-10-04T22:03:21.636Z,4.72
2022-10-04T22:05:49.908Z,4.32
2022-10-04T22:08:18.416Z,4.93
2022-10-04T22:10:48.000Z,4.47
2022-10-04T22:13:16.605Z,4.65
2022-10-04T22:15:46.294Z,4.10
2022-10-04T22:18:14.591Z,4.05
2022-10-04T22:20:42.954Z,4.07
2022-10-04T22:23:14.502Z,4.00
2022-10-04T22:25:42.752Z,3.80
2022-10-04T22:28:20.159Z,4.10
2022-10-04T22:30:52.101Z,3.40
2022-10-04T22:33:34.901Z,4.22
2022-10-04T22:36:17.105Z,3.88
2022-10-04T22:38:52.769Z,3.53
2022-10-04T22:41:21.367Z,4.10
2022-10-04T22:43:51.435Z,4.65
2022-10-04T22:46:21.697Z,4.90
2022-10-04T22:48:50.658Z,5.35
2022-10-04T22:51:18.917Z,5.00
2022-10-04T22:53:49.069Z,6.20
2022-10-04T22:56:17.439Z,5.45
2022-10-04T22:58:45.790Z,6.13
2022-10-04T23:01:17.615Z,5.82
2022-10-04T23:03:49.933Z,6.57
2022-10-04T23:06:18.433Z,6.95
2022-10-04T23:08:46.850Z,6.88
2022-10-04T23:11:15.161Z,6.60
2022-10-04T23:13:43.777Z,7.55
2022-10-04T23:16:15.919Z,6.90
2022-10-04T23:18:44.210Z,6.10
2022-10-04T23:21:22.517Z,6.80
2022-10-04T23:23:52.866Z,6.95
2022-10-04T23:26:24.748Z,6.80
2022-10-04T23:28:53.505Z,7.03
2022-10-04T23:31:25.882Z,6.60
2022-10-04T23:33:58.000Z,6.50
2022-10-04T23:36:27.608Z,7.35
2022-10-04T23:39:00.601Z,7.10
2022-10-04T23:41:28.855Z,7.35
2022-10-04T23:43:57.197Z,7.82
2022-10-04T23:46:25.924Z,7.68
2022-10-04T23:48:54.152Z,7.88
2022-10-04T23:51:22.936Z,7.00
2022-10-04T23:53:52.613Z,6.63
2022-10-04T23:56:23.564Z,7.70
2022-10-04T23:58:54.337Z,6.35
